createdAt,value
2022-10-20T00:00:11.063Z,7.90
2022-10-20T00:01:11.063Z,6.64
2022-10-20T00:02:11.077Z,7.32
2022-10-20T00:03:11.063Z,9.64
2022-10-20T00:04:11.061Z,8.36
2022-10-20T00:05:11.063Z,7.80
2022-10-20T00:06:15.073Z,8.52
2022-10-20T00:07:11.064Z,9.16
2022-10-20T00:08:11.062Z,8.28
2022-10-20T00:09:11.166Z,7.70
2022-10-20T00:10:11.065Z,8.00
2022-10-20T00:11:11.061Z,8.38
2022-10-20T00:12:11.063Z,8.76
2022-10-20T00:13:11.066Z,8.40
2022-10-20T00:14:11.062Z,8.32
2022-10-20T00:15:11.066Z,8.62
2022-10-20T00:16:11.072Z,8.62
2022-10-20T00:17:11.063Z,9.14
2022-10-20T00:18:11.064Z,10.34
2022-10-20T00:19:11.062Z,9.62
2022-10-20T00:20:11.126Z,9.04
2022-10-20T00:21:12.058Z,8.36
2022-10-20T00:22:11.058Z,10.12
2022-10-20T00:23:11.065Z,8.40
2022-10-20T00:24:11.059Z,7.92
2022-10-20T00:25:11.064Z,8.38
2022-10-20T00:26:12.065Z,7.58
2022-10-20T00:27:11.058Z,8.18
2022-10-20T00:28:11.054Z,8.64
2022-10-20T00:29:11.115Z,9.00
2022-10-20T00:30:11.060Z,8.44
2022-10-20T00:31:11.058Z,11.22
2022-10-20T00:32:11.058Z,8.62
2022-10-20T00:33:11.060Z,8.26
2022-10-20T00:34:11.057Z,8.30
2022-10-20T00:35:11.059Z,9.78
2022-10-20T00:36:13.065Z,8.66
2022-10-20T00:37:11.062Z,9.28
2022-10-20T00:38:11.118Z,9.58
2022-10-20T00:39:11.063Z,9.22
2022-10-20T00:40:11.060Z,9.56
2022-10-20T00:41:12.056Z,10.00
2022-10-20T00:42:16.062Z,8.82
2022-10-20T00:43:15.061Z,9.74
2022-10-20T00:44:19.058Z,10.00
2022-10-20T00:45:18.062Z,9.84
2022-10-20T00:46:11.060Z,8.60
2022-10-20T00:47:14.061Z,8.88
2022-10-20T00:48:15.060Z,8.62
2022-10-20T00:49:19.059Z,8.16
2022-10-20T00:50:17.072Z,10.26
2022-10-20T00:51:12.061Z,8.36
2022-10-20T00:52:11.060Z,9.48
2022-10-20T00:53:11.062Z,9.40
2022-10-20T00:54:14.062Z,10.70
2022-10-20T00:55:11.065Z,10.16
2022-10-20T00:56:11.060Z,9.18
2022-10-20T00:57:11.065Z,10.88
2022-10-20T00:58:11.059Z,7.84
2022-10-20T00:59:12.063Z,9.62
2022-10-20T01:00:11.069Z,8.90
2022-10-20T01:01:11.115Z,9.42
2022-10-20T01:02:11.058Z,8.72
2022-10-20T01:03:14.071Z,9.62
2022-10-20T01:04:11.064Z,9.44
2022-10-20T01:05:11.060Z,8.16
2022-10-20T01:06:11.085Z,10.02
2022-10-20T01:07:11.064Z,9.90
2022-10-20T01:08:11.062Z,9.70
2022-10-20T01:09:11.142Z,9.10
2022-10-20T01:10:11.074Z,8.56
2022-10-20T01:11:19.062Z,9.76
2022-10-20T01:12:19.066Z,9.76
2022-10-20T01:13:19.065Z,9.38
2022-10-20T01:14:19.076Z,11.04
2022-10-20T01:15:19.120Z,9.46
2022-10-20T01:16:19.064Z,35.18
2022-10-20T01:17:22.065Z,9.10
2022-10-20T01:18:21.067Z,10.40
2022-10-20T01:19:19.073Z,9.78
2022-10-20T01:20:19.067Z,10.22
2022-10-20T01:21:19.056Z,9.90
2022-10-20T01:22:18.053Z,13.34
2022-10-20T01:23:19.058Z,12.44
2022-10-20T01:24:22.093Z,10.14
2022-10-20T01:25:21.061Z,10.58
2022-10-20T01:26:19.062Z,10.70
2022-10-20T01:27:22.057Z,11.42
2022-10-20T01:28:19.054Z,11.82
2022-10-20T01:29:22.059Z,11.80
2022-10-20T01:30:16.065Z,9.88
2022-10-20T01:31:19.061Z,10.78
2022-10-20T01:32:19.056Z,9.48
2022-10-20T01:33:22.106Z,10.36
2022-10-20T01:34:17.059Z,10.18
2022-10-20T01:35:17.068Z,9.40
2022-10-20T01:36:25.061Z,9.80
2022-10-20T01:37:34.133Z,11.30
2022-10-20T01:38:21.104Z,10.86
2022-10-20T01:39:15.058Z,11.72
2022-10-20T01:40:22.063Z,10.40
2022-10-20T01:41:18.067Z,10.12
2022-10-20T01:42:19.062Z,10.98
2022-10-20T01:43:13.066Z,11.42
2022-10-20T01:44:11.059Z,10.72
2022-10-20T01:45:12.065Z,11.50
2022-10-20T01:46:11.063Z,10.22
2022-10-20T01:47:11.058Z,11.92
2022-10-20T01:48:11.061Z,11.00
2022-10-20T01:49:11.068Z,9.78
2022-10-20T01:50:11.060Z,11.12
2022-10-20T01:51:11.062Z,11.18
2022-10-20T01:52:11.070Z,12.72
2022-10-20T01:53:11.064Z,12.06
2022-10-20T01:54:19.063Z,13.24
2022-10-20T01:55:17.062Z,10.24
2022-10-20T01:56:19.062Z,11.56
2022-10-20T01:57:22.061Z,11.64
2022-10-20T01:58:19.061Z,11.34
2022-10-20T01:59:19.065Z,10.40
2022-10-20T02:00:16.081Z,11.06
2022-10-20T02:01:22.093Z,10.70
2022-10-20T02:02:19.061Z,11.86
2022-10-20T02:03:22.058Z,12.26
2022-10-20T02:04:11.059Z,11.66
2022-10-20T02:05:19.070Z,10.60
2022-10-20T02:06:19.065Z,12.38
2022-10-20T02:07:16.061Z,12.18
2022-10-20T02:08:19.067Z,13.36
2022-10-20T02:09:21.063Z,10.18
2022-10-20T02:10:20.078Z,13.28
2022-10-20T02:11:18.066Z,11.44
2022-10-20T02:12:19.064Z,10.16
2022-10-20T02:13:11.062Z,12.72
2022-10-20T02:14:12.063Z,11.30
2022-10-20T02:15:13.068Z,12.32
2022-10-20T02:16:15.063Z,11.10
2022-10-20T02:17:13.067Z,12.18
2022-10-20T02:18:12.068Z,10.46
2022-10-20T02:19:11.065Z,12.24
2022-10-20T02:20:11.060Z,10.52
2022-10-20T02:21:11.060Z,13.04
2022-10-20T02:22:11.058Z,12.80
2022-10-20T02:23:11.057Z,13.06
2022-10-20T02:24:11.058Z,12.56
2022-10-20T02:25:12.062Z,12.90
2022-10-20T02:26:13.057Z,13.48
2022-10-20T02:27:19.058Z,12.28
2022-10-20T02:28:12.061Z,12.50
2022-10-20T02:29:18.064Z,12.52
2022-10-20T02:30:13.058Z,11.34
2022-10-20T02:31:11.060Z,13.14
2022-10-20T02:32:11.067Z,13.10
2022-10-20T02:33:11.061Z,12.20
2022-10-20T02:34:11.055Z,13.20
2022-10-20T02:35:14.063Z,12.74
2022-10-20T02:36:16.063Z,12.54
2022-10-20T02:37:11.137Z,12.32
2022-10-20T02:38:11.061Z,13.16
2022-10-20T02:39:11.068Z,12.90
2022-10-20T02:40:11.060Z,12.12
2022-10-20T02:41:11.061Z,14.46
2022-10-20T02:42:11.069Z,12.48
2022-10-20T02:43:11.061Z,13.32
2022-10-20T02:44:11.064Z,15.18
2022-10-20T02:45:11.086Z,13.30
2022-10-20T02:46:11.083Z,14.38
2022-10-20T02:47:11.065Z,14.10
2022-10-20T02:48:11.064Z,12.12
2022-10-20T02:49:11.061Z,13.70
2022-10-20T02:50:11.059Z,13.20
2022-10-20T02:51:11.063Z,12.96
2022-10-20T02:52:11.061Z,12.96
2022-10-20T02:53:11.060Z,12.78
2022-10-20T02:54:11.064Z,14.18
2022-10-20T02:55:11.162Z,14.44
2022-10-20T02:56:11.062Z,12.16
2022-10-20T02:57:11.063Z,12.76
2022-10-20T02:58:11.064Z,11.00
2022-10-20T02:59:14.060Z,12.84
2022-10-20T03:00:11.065Z,14.04
2022-10-20T03:01:11.069Z,12.98
2022-10-20T03:02:11.064Z,14.34
2022-10-20T03:03:11.060Z,13.36
2022-10-20T03:04:11.065Z,12.92
2022-10-20T03:05:11.064Z,13.36
2022-10-20T03:06:14.060Z,12.14
2022-10-20T03:07:12.066Z,13.68
2022-10-20T03:08:11.065Z,12.72
2022-10-20T03:09:11.061Z,12.50
2022-10-20T03:10:11.068Z,13.42
2022-10-20T03:11:11.065Z,11.94
2022-10-20T03:12:11.071Z,11.48
2022-10-20T03:13:11.064Z,11.16
2022-10-20T03:14:11.065Z,14.42
2022-10-20T03:15:11.064Z,11.70
2022-10-20T03:16:11.063Z,12.96
2022-10-20T03:17:11.067Z,12.34
2022-10-20T03:18:11.064Z,14.86
2022-10-20T03:19:11.985Z,14.50
2022-10-20T03:20:11.078Z,14.04
2022-10-20T03:21:11.052Z,13.70
2022-10-20T03:22:11.054Z,13.70
2022-10-20T03:23:11.894Z,13.84
2022-10-20T03:24:11.053Z,14.12
2022-10-20T03:25:11.053Z,13.22
2022-10-20T03:26:11.061Z,12.64
2022-10-20T03:27:11.052Z,11.90
2022-10-20T03:28:11.058Z,12.88
2022-10-20T03:29:11.063Z,15.72
2022-10-20T03:30:11.052Z,13.38
2022-10-20T03:31:11.057Z,11.50
2022-10-20T03:32:11.060Z,13.18
2022-10-20T03:33:11.056Z,14.88
2022-10-20T03:34:11.058Z,14.68
2022-10-20T03:35:11.058Z,12.80
2022-10-20T03:36:11.056Z,12.00
2022-10-20T03:37:11.054Z,14.34
2022-10-20T03:38:11.055Z,12.50
2022-10-20T03:39:11.060Z,13.96
2022-10-20T03:40:11.059Z,14.38
2022-10-20T03:41:11.058Z,13.16
2022-10-20T03:42:11.058Z,14.00
2022-10-20T03:43:11.057Z,14.04
2022-10-20T03:44:11.057Z,12.78
2022-10-20T03:45:13.746Z,14.78
2022-10-20T03:46:13.881Z,12.84
2022-10-20T03:47:11.055Z,14.44
2022-10-20T03:48:11.061Z,15.34
2022-10-20T03:49:11.059Z,15.16
2022-10-20T03:50:11.061Z,12.84
2022-10-20T03:51:11.059Z,13.28
2022-10-20T03:52:11.059Z,15.06
2022-10-20T03:53:12.060Z,15.14
2022-10-20T03:54:11.059Z,14.08
2022-10-20T03:55:11.065Z,12.76
2022-10-20T03:56:16.058Z,13.94
2022-10-20T03:57:11.057Z,14.22
2022-10-20T03:58:11.056Z,13.24
2022-10-20T03:59:11.061Z,13.12
2022-10-20T04:00:11.057Z,11.80
2022-10-20T04:01:14.113Z,13.42
2022-10-20T04:02:15.062Z,13.48
2022-10-20T04:03:11.058Z,15.14
2022-10-20T04:04:11.055Z,14.82
2022-10-20T04:05:14.073Z,14.74
2022-10-20T04:06:11.059Z,13.60
2022-10-20T04:07:11.058Z,16.42
2022-10-20T04:08:11.127Z,12.56
2022-10-20T04:09:11.117Z,13.42
2022-10-20T04:10:11.056Z,14.12
2022-10-20T04:11:11.063Z,12.80
2022-10-20T04:12:11.061Z,15.00
2022-10-20T04:13:11.065Z,14.64
2022-10-20T04:14:11.063Z,17.52
2022-10-20T04:15:11.077Z,14.52
2022-10-20T04:16:11.066Z,14.20
2022-10-20T04:17:11.057Z,13.30
2022-10-20T04:18:11.065Z,14.46
2022-10-20T04:19:11.059Z,14.74
2022-10-20T04:20:11.065Z,14.66
2022-10-20T04:21:11.060Z,14.60
2022-10-20T04:22:11.063Z,15.26
2022-10-20T04:23:11.061Z,15.68
2022-10-20T04:24:11.063Z,15.80
2022-10-20T04:25:11.071Z,15.06
2022-10-20T04:26:11.060Z,15.80
2022-10-20T04:27:11.061Z,15.64
2022-10-20T04:28:11.068Z,16.16
2022-10-20T04:29:11.060Z,15.56
2022-10-20T04:30:11.066Z,16.88
2022-10-20T04:31:11.069Z,16.96
2022-10-20T04:32:11.066Z,18.52
2022-10-20T04:33:11.058Z,15.64
2022-10-20T04:34:11.064Z,15.46
2022-10-20T04:35:11.063Z,19.88
2022-10-20T04:36:13.066Z,15.92
2022-10-20T04:37:11.068Z,17.18
2022-10-20T04:38:11.071Z,18.38
2022-10-20T04:39:11.065Z,18.48
2022-10-20T04:40:11.067Z,19.38
2022-10-20T04:41:11.075Z,18.34
2022-10-20T04:42:11.060Z,18.44
2022-10-20T04:43:11.060Z,16.78
2022-10-20T04:44:11.067Z,15.94
2022-10-20T04:45:11.070Z,16.32
2022-10-20T04:46:11.062Z,18.50
2022-10-20T04:47:11.067Z,18.20
2022-10-20T04:48:11.069Z,17.16
2022-10-20T04:49:11.066Z,18.46
2022-10-20T04:50:11.063Z,16.70
2022-10-20T04:51:11.066Z,17.78
2022-10-20T04:52:11.066Z,17.30
2022-10-20T04:53:11.065Z,17.42
2022-10-20T04:54:11.067Z,16.36
2022-10-20T04:55:11.063Z,18.62
2022-10-20T04:56:12.065Z,17.88
2022-10-20T04:57:11.066Z,20.18
2022-10-20T04:58:11.065Z,17.74
2022-10-20T04:59:13.520Z,17.14
2022-10-20T05:00:11.073Z,18.26
2022-10-20T05:01:11.209Z,16.40
2022-10-20T05:02:11.068Z,17.58
2022-10-20T05:04:11.070Z,18.08
2022-10-20T05:05:11.064Z,18.44
2022-10-20T05:06:21.074Z,16.20
2022-10-20T05:07:11.075Z,16.36
2022-10-20T05:08:11.068Z,18.30
2022-10-20T05:09:11.132Z,19.40
2022-10-20T05:10:11.075Z,17.48
2022-10-20T05:11:11.070Z,18.36
2022-10-20T05:12:11.103Z,18.30
2022-10-20T05:13:11.071Z,18.20
2022-10-20T05:14:11.068Z,17.92
2022-10-20T05:15:11.066Z,18.54
2022-10-20T05:16:11.068Z,19.32
2022-10-20T05:17:11.070Z,19.44
2022-10-20T05:18:11.066Z,18.32
2022-10-20T05:19:11.075Z,18.14
2022-10-20T05:20:11.076Z,18.06
2022-10-20T05:21:19.068Z,20.04
2022-10-20T05:22:11.065Z,16.66
2022-10-20T05:23:11.067Z,18.46
2022-10-20T05:24:16.804Z,18.44
2022-10-20T05:25:35.005Z,17.22
2022-10-20T05:26:16.061Z,18.14
2022-10-20T05:27:11.067Z,17.04
2022-10-20T05:28:11.081Z,16.94
2022-10-20T05:29:11.068Z,17.80
2022-10-20T05:30:11.062Z,16.80
2022-10-20T05:31:11.067Z,17.46
2022-10-20T05:32:11.073Z,18.32
2022-10-20T05:33:11.062Z,15.74
2022-10-20T05:34:11.070Z,17.02
2022-10-20T05:35:11.066Z,16.20
2022-10-20T05:36:13.860Z,14.84
2022-10-20T05:37:11.067Z,15.84
2022-10-20T05:38:11.069Z,16.44
2022-10-20T05:39:11.065Z,17.04
2022-10-20T05:40:11.069Z,18.02
2022-10-20T05:41:18.077Z,18.62
2022-10-20T05:42:11.071Z,17.56
2022-10-20T05:43:11.065Z,16.14
2022-10-20T05:44:12.075Z,16.24
2022-10-20T05:45:11.069Z,17.90
2022-10-20T05:46:11.068Z,17.62
2022-10-20T05:47:11.068Z,15.58
2022-10-20T05:48:11.078Z,18.14
2022-10-20T05:49:15.066Z,17.32
2022-10-20T05:50:11.071Z,16.52
2022-10-20T05:51:18.082Z,15.28
2022-10-20T05:52:11.070Z,18.52
2022-10-20T05:53:11.072Z,17.00
2022-10-20T05:54:12.079Z,17.82
2022-10-20T05:55:11.071Z,17.76
2022-10-20T05:56:11.068Z,20.04
2022-10-20T05:57:11.070Z,18.64
2022-10-20T05:58:11.079Z,18.20
2022-10-20T05:59:11.072Z,16.88
2022-10-20T06:00:11.072Z,17.88
2022-10-20T06:01:11.079Z,17.84
2022-10-20T06:02:12.103Z,18.24
2022-10-20T06:03:12.319Z,18.80
2022-10-20T06:04:11.080Z,16.32
2022-10-20T06:05:11.072Z,17.84
2022-10-20T06:06:11.070Z,17.62
2022-10-20T06:07:11.070Z,17.66
2022-10-20T06:08:11.072Z,16.48
2022-10-20T06:09:11.068Z,16.24
2022-10-20T06:10:11.072Z,17.00
2022-10-20T06:11:11.080Z,16.02
2022-10-20T06:12:11.079Z,17.22
2022-10-20T06:13:11.075Z,17.54
2022-10-20T06:14:11.083Z,17.54
2022-10-20T06:15:11.076Z,17.10
2022-10-20T06:16:12.069Z,17.84
2022-10-20T06:17:11.074Z,16.88
2022-10-20T06:18:11.075Z,18.42
2022-10-20T06:19:11.072Z,20.00
2022-10-20T06:20:11.071Z,19.38
2022-10-20T06:21:13.056Z,19.08
2022-10-20T06:22:11.055Z,23.32
2022-10-20T06:23:11.055Z,21.80
2022-10-20T06:24:11.065Z,18.08
2022-10-20T06:25:11.055Z,18.98
2022-10-20T06:26:11.056Z,18.82
2022-10-20T06:27:11.062Z,20.06
2022-10-20T06:28:11.059Z,21.10
2022-10-20T06:29:12.053Z,19.80
2022-10-20T06:30:11.058Z,19.26
2022-10-20T06:31:16.055Z,17.82
2022-10-20T06:32:11.106Z,20.72
2022-10-20T06:33:11.056Z,18.30
2022-10-20T06:34:13.057Z,19.56
2022-10-20T06:35:11.054Z,22.32
2022-10-20T06:36:11.057Z,21.28
2022-10-20T06:37:11.063Z,18.48
2022-10-20T06:38:11.061Z,20.70
2022-10-20T06:39:12.059Z,19.20
2022-10-20T06:40:11.062Z,20.98
2022-10-20T06:41:12.058Z,19.86
2022-10-20T06:42:12.216Z,20.68
2022-10-20T06:43:11.060Z,20.82
2022-10-20T06:44:11.060Z,20.20
2022-10-20T06:45:12.301Z,20.12
2022-10-20T06:46:12.056Z,19.92
2022-10-20T06:47:14.058Z,21.10
2022-10-20T06:48:11.061Z,19.12
2022-10-20T06:49:11.059Z,19.72
2022-10-20T06:50:11.068Z,20.24
2022-10-20T06:51:12.075Z,19.08
2022-10-20T06:53:11.067Z,18.06
2022-10-20T06:54:11.061Z,21.98
2022-10-20T06:55:11.055Z,22.18
2022-10-20T06:56:17.067Z,20.08
2022-10-20T06:57:11.060Z,20.58
2022-10-20T06:58:11.058Z,20.74
2022-10-20T06:59:11.060Z,23.14
2022-10-20T07:00:11.062Z,20.68
2022-10-20T07:01:17.145Z,21.32
2022-10-20T07:02:12.189Z,21.92
2022-10-20T07:03:11.071Z,21.90
2022-10-20T07:04:13.061Z,17.84
2022-10-20T07:05:11.059Z,21.82
2022-10-20T07:06:15.063Z,23.00
2022-10-20T07:07:11.061Z,20.52
2022-10-20T07:08:11.057Z,19.42
2022-10-20T07:09:13.110Z,21.32
2022-10-20T07:10:11.061Z,22.62
2022-10-20T07:11:17.069Z,21.62
2022-10-20T07:12:11.059Z,19.96
2022-10-20T07:13:11.062Z,21.42
2022-10-20T07:14:11.057Z,22.30
2022-10-20T07:15:11.062Z,21.84
2022-10-20T07:16:13.076Z,23.24
2022-10-20T07:17:11.059Z,21.42
2022-10-20T07:18:11.064Z,20.32
2022-10-20T07:19:11.073Z,22.30
2022-10-20T07:20:11.077Z,22.24
2022-10-20T07:21:12.055Z,23.04
2022-10-20T07:22:11.062Z,19.06
2022-10-20T07:23:11.060Z,22.56
2022-10-20T07:24:11.056Z,23.36
2022-10-20T07:25:11.063Z,21.18
2022-10-20T07:26:14.059Z,22.74
2022-10-20T07:27:11.058Z,22.90
2022-10-20T07:28:11.059Z,26.34
2022-10-20T07:29:11.061Z,24.14
2022-10-20T07:30:11.058Z,23.72
2022-10-20T07:31:14.067Z,24.02
2022-10-20T07:32:11.061Z,22.64
2022-10-20T07:33:11.059Z,21.80
2022-10-20T07:34:25.088Z,22.24
2022-10-20T07:35:13.210Z,20.34
2022-10-20T07:36:20.059Z,25.02
2022-10-20T07:37:11.057Z,24.04
2022-10-20T07:38:11.064Z,24.14
2022-10-20T07:39:11.061Z,21.44
2022-10-20T07:40:11.132Z,24.92
2022-10-20T07:41:11.069Z,21.14
2022-10-20T07:42:11.064Z,25.54
2022-10-20T07:43:11.063Z,24.16
2022-10-20T07:44:11.064Z,23.24
2022-10-20T07:45:11.063Z,23.30
2022-10-20T07:46:11.059Z,21.82
2022-10-20T07:47:11.064Z,27.02
2022-10-20T07:48:11.063Z,22.62
2022-10-20T07:49:43.996Z,23.28
2022-10-20T07:50:13.120Z,23.64
2022-10-20T07:51:19.067Z,22.86
2022-10-20T07:52:11.064Z,25.44
2022-10-20T07:53:11.061Z,26.02
2022-10-20T07:54:11.062Z,24.94
2022-10-20T07:55:25.344Z,25.32
2022-10-20T07:56:13.078Z,26.60
2022-10-20T07:57:11.069Z,28.76
2022-10-20T07:58:11.070Z,25.68
2022-10-20T07:59:11.066Z,26.70
2022-10-20T08:00:11.063Z,23.22
2022-10-20T08:01:11.066Z,24.48
2022-10-20T08:02:11.197Z,23.80
2022-10-20T08:03:11.065Z,26.10
2022-10-20T08:04:11.080Z,22.88
2022-10-20T08:05:11.068Z,20.56
2022-10-20T08:06:11.073Z,23.66
2022-10-20T08:07:11.064Z,25.06
2022-10-20T08:08:11.065Z,25.52
2022-10-20T08:09:11.063Z,24.40
2022-10-20T08:10:11.064Z,21.72
2022-10-20T08:11:11.072Z,25.00
2022-10-20T08:12:11.063Z,26.52
2022-10-20T08:13:11.068Z,25.54
2022-10-20T08:14:11.073Z,26.16
2022-10-20T08:15:11.068Z,27.26
2022-10-20T08:16:11.075Z,25.94
2022-10-20T08:17:11.074Z,25.56
2022-10-20T08:18:11.072Z,24.70
2022-10-20T08:19:11.072Z,26.86
2022-10-20T08:20:11.076Z,25.26
2022-10-20T08:21:15.059Z,25.66
2022-10-20T08:22:11.057Z,25.94
2022-10-20T08:23:11.059Z,27.24
2022-10-20T08:24:11.060Z,25.28
2022-10-20T08:25:13.058Z,25.50
2022-10-20T08:26:11.636Z,26.76
2022-10-20T08:27:11.066Z,25.16
2022-10-20T08:28:11.070Z,25.06
2022-10-20T08:29:11.059Z,23.16
2022-10-20T08:30:23.355Z,25.82
2022-10-20T08:31:13.079Z,25.96
2022-10-20T08:32:11.061Z,24.86
2022-10-20T08:33:11.070Z,24.92
2022-10-20T08:34:11.059Z,23.42
2022-10-20T08:35:11.062Z,24.88
2022-10-20T08:36:11.067Z,25.72
2022-10-20T08:37:11.142Z,24.74
2022-10-20T08:38:11.061Z,23.58
2022-10-20T08:39:12.070Z,22.14
2022-10-20T08:40:16.068Z,27.10
2022-10-20T08:41:16.059Z,25.52
2022-10-20T08:42:11.062Z,24.16
2022-10-20T08:43:17.070Z,24.92
2022-10-20T08:44:15.066Z,24.42
2022-10-20T08:45:15.060Z,26.04
2022-10-20T08:46:15.126Z,23.84
2022-10-20T08:47:16.070Z,25.28
2022-10-20T08:48:15.064Z,23.66
2022-10-20T08:49:19.062Z,21.44
2022-10-20T08:50:12.065Z,24.90
2022-10-20T08:51:19.070Z,24.44
2022-10-20T08:52:16.067Z,23.80
2022-10-20T08:53:11.060Z,26.44
2022-10-20T08:54:14.065Z,22.80
2022-10-20T08:55:16.118Z,21.50
2022-10-20T08:56:13.062Z,23.54
2022-10-20T08:57:19.067Z,22.50
2022-10-20T08:58:19.071Z,24.88
2022-10-20T08:59:21.069Z,25.04
2022-10-20T09:00:17.067Z,25.24
2022-10-20T09:01:19.173Z,23.44
2022-10-20T09:02:15.148Z,26.36
2022-10-20T09:03:17.067Z,26.60
2022-10-20T09:04:18.067Z,26.50
2022-10-20T09:05:13.950Z,24.58
2022-10-20T09:06:17.193Z,23.00
2022-10-20T09:07:21.066Z,26.40
2022-10-20T09:08:11.073Z,26.14
2022-10-20T09:09:14.133Z,25.78
2022-10-20T09:10:19.068Z,25.98
2022-10-20T09:11:15.065Z,25.88
2022-10-20T09:12:12.072Z,24.50
2022-10-20T09:13:19.068Z,21.78
2022-10-20T09:14:11.063Z,24.34
2022-10-20T09:15:13.068Z,23.46
2022-10-20T09:16:27.255Z,26.48
2022-10-20T09:17:18.115Z,25.06
2022-10-20T09:18:13.067Z,26.54
2022-10-20T09:19:18.077Z,25.84
2022-10-20T09:20:19.121Z,27.10
2022-10-20T09:21:19.060Z,25.60
2022-10-20T09:22:11.074Z,28.82
2022-10-20T09:23:39.419Z,27.60
2022-10-20T09:24:13.083Z,26.90
2022-10-20T09:30:21.065Z,25.50
2022-10-20T09:31:19.062Z,26.68
2022-10-20T09:33:21.062Z,26.36
2022-10-20T09:34:19.062Z,25.52
2022-10-20T09:35:19.069Z,25.78
2022-10-20T09:36:15.063Z,23.78
2022-10-20T09:37:17.059Z,24.94
2022-10-20T09:38:18.058Z,22.18
2022-10-20T09:39:18.064Z,24.68
2022-10-20T09:40:15.092Z,25.26
2022-10-20T09:41:21.062Z,21.98
2022-10-20T09:42:15.060Z,23.24
2022-10-20T09:43:15.066Z,24.50
2022-10-20T09:44:16.105Z,22.82
2022-10-20T09:45:19.065Z,25.58
2022-10-20T09:46:11.067Z,20.52
2022-10-20T09:47:14.070Z,24.34
2022-10-20T09:48:21.073Z,26.44
2022-10-20T09:49:17.063Z,22.94
2022-10-20T09:50:17.062Z,23.32
2022-10-20T09:51:16.061Z,24.76
2022-10-20T09:52:16.076Z,25.62
2022-10-20T09:53:19.065Z,24.90
2022-10-20T09:54:18.066Z,22.60
2022-10-20T09:55:19.062Z,25.50
2022-10-20T09:56:11.072Z,22.88
2022-10-20T09:57:18.071Z,21.36
2022-10-20T09:58:19.065Z,23.82
2022-10-20T09:59:19.066Z,22.56
2022-10-20T10:00:35.851Z,23.76
2022-10-20T10:01:18.107Z,25.12
2022-10-20T10:02:19.078Z,20.44
2022-10-20T10:03:18.067Z,19.52
2022-10-20T10:04:19.066Z,22.70
2022-10-20T10:05:15.063Z,22.06
2022-10-20T10:06:19.073Z,19.82
2022-10-20T10:07:21.068Z,21.50
2022-10-20T10:08:15.074Z,23.34
2022-10-20T10:09:19.102Z,24.90
2022-10-20T10:10:21.071Z,20.64
2022-10-20T10:11:15.065Z,22.80
2022-10-20T10:12:18.075Z,20.48
2022-10-20T10:13:21.162Z,23.56
2022-10-20T10:14:19.066Z,22.52
2022-10-20T10:15:19.071Z,20.58
2022-10-20T10:16:12.066Z,21.90
2022-10-20T10:17:11.069Z,20.96
2022-10-20T10:18:15.066Z,19.60
2022-10-20T10:19:17.069Z,19.10
2022-10-20T10:20:19.087Z,19.70
2022-10-20T10:21:14.070Z,16.72
2022-10-20T10:22:14.059Z,16.52
2022-10-20T10:23:19.058Z,15.50
2022-10-20T10:24:19.069Z,17.68
2022-10-20T10:25:19.059Z,15.32
2022-10-20T10:26:19.057Z,11.78
2022-10-20T10:27:19.059Z,11.14
2022-10-20T10:28:20.147Z,10.90
2022-10-20T10:29:18.067Z,10.58
2022-10-20T10:30:21.060Z,9.28
2022-10-20T10:31:21.061Z,9.34
2022-10-20T10:32:19.059Z,9.06
2022-10-20T10:33:19.063Z,8.20
2022-10-20T10:34:19.058Z,8.88
2022-10-20T10:35:19.070Z,10.36
2022-10-20T10:36:21.066Z,9.90
2022-10-20T10:37:13.152Z,10.18
2022-10-20T10:38:11.063Z,11.24
2022-10-20T10:39:14.066Z,7.82
2022-10-20T10:40:16.071Z,9.10
2022-10-20T10:41:19.068Z,10.22
2022-10-20T10:42:21.066Z,8.46
2022-10-20T10:43:19.065Z,10.34
2022-10-20T10:44:21.068Z,9.22
2022-10-20T10:45:19.072Z,9.78
2022-10-20T10:46:16.063Z,10.64
2022-10-20T10:47:19.076Z,10.58
2022-10-20T10:48:19.060Z,7.98
2022-10-20T10:49:21.062Z,8.88
2022-10-20T10:50:19.068Z,8.94
2022-10-20T10:51:21.076Z,9.46
2022-10-20T10:52:19.064Z,9.48
2022-10-20T10:53:19.064Z,8.76
2022-10-20T10:54:19.066Z,9.52
2022-10-20T10:55:43.594Z,8.58
2022-10-20T10:56:21.101Z,9.78
2022-10-20T10:57:21.074Z,10.04
2022-10-20T10:58:19.069Z,9.56
2022-10-20T10:59:21.059Z,9.90
2022-10-20T11:00:18.063Z,9.84
2022-10-20T11:01:19.148Z,10.04
2022-10-20T11:02:19.063Z,9.10
2022-10-20T11:03:23.062Z,9.38
2022-10-20T11:04:19.065Z,9.32
2022-10-20T11:05:19.070Z,9.42
2022-10-20T11:06:19.067Z,9.20
2022-10-20T11:07:21.072Z,11.64
2022-10-20T11:08:19.065Z,9.80
2022-10-20T11:09:21.064Z,9.98
2022-10-20T11:10:19.064Z,9.90
2022-10-20T11:11:21.066Z,11.32
2022-10-20T11:12:21.068Z,10.38
2022-10-20T11:13:22.967Z,10.02
2022-10-20T11:14:23.085Z,10.18
2022-10-20T11:15:19.067Z,9.72
2022-10-20T11:16:19.064Z,9.76
2022-10-20T11:17:19.073Z,10.52
2022-10-20T11:18:21.074Z,10.24
2022-10-20T11:19:19.066Z,10.02
2022-10-20T11:20:19.068Z,10.08
2022-10-20T11:21:19.061Z,9.50
2022-10-20T11:22:19.062Z,9.66
2022-10-20T11:23:19.072Z,10.82
2022-10-20T11:24:21.067Z,10.34
2022-10-20T11:25:19.058Z,9.22
2022-10-20T11:26:23.145Z,10.76
2022-10-20T11:27:15.061Z,10.46
2022-10-20T11:28:21.068Z,10.02
2022-10-20T11:29:17.062Z,11.56
2022-10-20T11:30:15.073Z,10.00
2022-10-20T11:31:17.059Z,9.04
2022-10-20T11:32:19.070Z,11.38
2022-10-20T11:33:16.062Z,10.68
2022-10-20T11:34:19.057Z,8.68
2022-10-20T11:35:19.061Z,9.40
2022-10-20T11:36:18.068Z,9.08
2022-10-20T11:37:19.063Z,11.94
2022-10-20T11:38:21.060Z,10.06
2022-10-20T11:39:17.058Z,10.96
2022-10-20T11:40:21.064Z,10.14
2022-10-20T11:41:19.116Z,10.38
2022-10-20T11:42:21.063Z,11.06
2022-10-20T11:43:20.063Z,9.90
2022-10-20T11:44:19.060Z,8.60
2022-10-20T11:45:19.064Z,11.16
2022-10-20T11:46:17.064Z,10.32
2022-10-20T11:47:14.064Z,10.56
2022-10-20T11:48:19.060Z,9.82
2022-10-20T11:49:11.059Z,9.52
2022-10-20T11:50:12.238Z,17.02
2022-10-20T11:51:23.061Z,12.10
2022-10-20T11:52:21.064Z,9.88
2022-10-20T11:53:19.072Z,12.22
2022-10-20T11:54:21.065Z,10.74
2022-10-20T11:55:19.076Z,10.56
2022-10-20T11:56:19.064Z,10.50
2022-10-20T11:57:19.064Z,9.70
2022-10-20T11:58:21.071Z,9.50
2022-10-20T11:59:19.068Z,11.38
2022-10-20T12:01:19.065Z,9.58
2022-10-20T12:02:19.152Z,8.80
2022-10-20T12:03:21.066Z,10.04
2022-10-20T12:04:19.063Z,10.22
2022-10-20T12:05:19.076Z,10.28
2022-10-20T12:06:19.065Z,10.32
2022-10-20T12:07:19.062Z,9.12
2022-10-20T12:08:29.561Z,9.04
2022-10-20T12:09:23.200Z,9.88
2022-10-20T12:10:19.069Z,8.78
2022-10-20T12:11:21.075Z,9.66
2022-10-20T12:12:21.067Z,10.40
2022-10-20T12:13:19.063Z,10.60
2022-10-20T12:14:19.065Z,9.96
2022-10-20T12:15:19.829Z,8.50
2022-10-20T12:16:11.072Z,8.54
2022-10-20T12:17:18.066Z,9.54
2022-10-20T12:18:19.063Z,7.34
2022-10-20T12:19:16.066Z,8.30
2022-10-20T12:20:19.073Z,8.32
2022-10-20T12:21:12.065Z,10.02
2022-10-20T12:22:19.056Z,14.18
2022-10-20T12:23:19.055Z,13.12
2022-10-20T12:24:19.058Z,7.84
2022-10-20T12:25:19.067Z,7.90
2022-10-20T12:26:19.058Z,7.70
2022-10-20T12:27:18.058Z,7.40
2022-10-20T12:28:19.058Z,7.14
2022-10-20T12:29:19.059Z,7.60
2022-10-20T12:30:19.072Z,7.28
2022-10-20T12:31:11.062Z,6.00
2022-10-20T12:32:19.061Z,6.14
2022-10-20T12:33:18.060Z,5.48
2022-10-20T12:34:19.067Z,5.98
2022-10-20T12:35:19.061Z,5.46
2022-10-20T12:36:19.058Z,5.58
2022-10-20T12:37:15.061Z,5.10
2022-10-20T12:38:16.061Z,5.26
2022-10-20T12:39:16.092Z,4.40
2022-10-20T12:40:19.063Z,4.62
2022-10-20T12:41:12.058Z,3.44
2022-10-20T12:42:20.063Z,5.94
2022-10-20T12:43:19.074Z,5.16
2022-10-20T12:44:15.061Z,4.26
2022-10-20T12:45:19.063Z,4.96
2022-10-20T12:46:17.121Z,5.62
2022-10-20T12:47:14.069Z,4.58
2022-10-20T12:48:15.065Z,4.74
2022-10-20T12:49:15.061Z,5.30
2022-10-20T12:50:19.063Z,4.58
2022-10-20T12:51:19.070Z,4.72
2022-10-20T12:52:19.063Z,4.66
2022-10-20T12:53:19.060Z,4.52
2022-10-20T12:54:19.063Z,3.50
2022-10-20T12:55:18.112Z,2.78
2022-10-20T12:56:12.077Z,2.20
2022-10-20T12:57:19.065Z,1.86
2022-10-20T12:58:23.062Z,2.60
2022-10-20T12:59:19.060Z,2.04
2022-10-20T13:00:19.063Z,3.40
2022-10-20T13:01:11.128Z,2.42
2022-10-20T13:02:21.063Z,2.82
2022-10-20T13:03:21.829Z,2.26
2022-10-20T13:04:21.090Z,1.80
2022-10-20T13:05:19.083Z,3.00
2022-10-20T13:06:19.067Z,2.90
2022-10-20T13:07:11.064Z,2.10